sensor_id;sensor_type;location;lat;lon;timestamp;pressure;altitude;pressure_sealevel;temperature;humidity
49397;BME280;35615;41.410;2.194;2023-04-28T00:00:37;101669.38;;;22.71;56.21
49397;BME280;35615;41.410;2.194;2023-04-28T00:03:04;101660.59;;;22.67;56.65
49397;BME280;35615;41.410;2.194;2023-04-28T00:05:32;101664.13;;;22.68;56.54
49397;BME280;35615;41.410;2.194;2023-04-28T00:07:59;101669.38;;;22.71;56.76
49397;BME280;35615;41.410;2.194;2023-04-28T00:10:27;101665.00;;;22.67;56.76
49397;BME280;35615;41.410;2.194;2023-04-28T00:12:55;101664.97;;;22.56;57.13
49397;BME280;35615;41.410;2.194;2023-04-28T00:15:23;101661.44;;;22.55;57.23
49397;BME280;35615;41.410;2.194;2023-04-28T00:17:50;101657.97;;;22.63;56.89
49397;BME280;35615;41.410;2.194;2023-04-28T00:20:17;101665.88;;;22.66;56.60
49397;BME280;35615;41.410;2.194;2023-04-28T00:22:45;101659.69;;;22.54;57.40
49397;BME280;35615;41.410;2.194;2023-04-28T00:25:12;101654.44;;;22.56;57.04
49397;BME280;35615;41.410;2.194;2023-04-28T00:27:39;101648.28;;;22.60;56.88
49397;BME280;35615;41.410;2.194;2023-04-28T00:30:10;101657.06;;;22.59;57.11
49397;BME280;35615;41.410;2.194;2023-04-28T00:32:37;101664.97;;;22.56;57.01
49397;BME280;35615;41.410;2.194;2023-04-28T00:35:05;101664.09;;;22.51;57.22
49397;BME280;35615;41.410;2.194;2023-04-28T00:37:37;101654.44;;;22.56;57.16
49397;BME280;35615;41.410;2.194;2023-04-28T00:40:04;101651.78;;;22.56;57.08
49397;BME280;35615;41.410;2.194;2023-04-28T00:42:32;101650.91;;;22.54;57.21
49397;BME280;35615;41.410;2.194;2023-04-28T00:45:00;101661.44;;;22.51;57.39
49397;BME280;35615;41.410;2.194;2023-04-28T00:47:36;101662.25;;;22.39;57.84
49397;BME280;35615;41.410;2.194;2023-04-28T00:50:05;101654.34;;;22.38;57.59
49397;BME280;35615;41.410;2.194;2023-04-28T00:52:37;101656.16;;;22.40;57.60
49397;BME280;35615;41.410;2.194;2023-04-28T00:55:06;101653.50;;;22.40;57.22
49397;BME280;35615;41.410;2.194;2023-04-28T00:57:34;101657.91;;;22.41;57.28
49397;BME280;35615;41.410;2.194;2023-04-28T01:00:03;101655.22;;;22.37;57.26
49397;BME280;35615;41.410;2.194;2023-04-28T01:02:32;101651.72;;;22.33;57.26
49397;BME280;35615;41.410;2.194;2023-04-28T01:05:01;101653.47;;;22.36;57.25
49397;BME280;35615;41.410;2.194;2023-04-28T01:07:30;101649.09;;;22.36;57.25
49397;BME280;35615;41.410;2.194;2023-04-28T01:09:58;101650.84;;;22.34;57.23
49397;BME280;35615;41.410;2.194;2023-04-28T01:12:30;101655.16;;;22.20;57.69
49397;BME280;35615;41.410;2.194;2023-04-28T01:14:59;101656.97;;;22.30;57.18
49397;BME280;35615;41.410;2.194;2023-04-28T01:17:29;101652.53;;;22.21;57.40
49397;BME280;35615;41.410;2.194;2023-04-28T01:19:58;101652.47;;;22.09;57.71
49397;BME280;35615;41.410;2.194;2023-04-28T01:22:26;101648.97;;;22.09;57.55
49397;BME280;35615;41.410;2.194;2023-04-28T01:24:54;101644.59;;;22.12;57.46
49397;BME280;35615;41.410;2.194;2023-04-28T01:27:22;101648.09;;;22.11;57.37
49397;BME280;35615;41.410;2.194;2023-04-28T01:29:50;101653.34;;;22.07;57.68
49397;BME280;35615;41.410;2.194;2023-04-28T01:32:18;101656.88;;;22.09;57.51
49397;BME280;35615;41.410;2.194;2023-04-28T01:34:46;101648.91;;;22.05;57.59
49397;BME280;35615;41.410;2.194;2023-04-28T01:37:14;101648.03;;;22.03;57.73
49397;BME280;35615;41.410;2.194;2023-04-28T01:39:42;101642.75;;;22.02;57.59
49397;BME280;35615;41.410;2.194;2023-04-28T01:42:10;101648.00;;;21.97;57.67
49397;BME280;35615;41.410;2.194;2023-04-28T01:44:38;101652.38;;;21.95;57.52
49397;BME280;35615;41.410;2.194;2023-04-28T01:47:11;101643.63;;;21.98;57.60
49397;BME280;35615;41.410;2.194;2023-04-28T01:49:39;101646.19;;;21.90;57.71
49397;BME280;35615;41.410;2.194;2023-04-28T01:52:07;101639.09;;;21.75;58.02
49397;BME280;35615;41.410;2.194;2023-04-28T01:54:35;101641.75;;;21.82;57.58
49397;BME280;35615;41.410;2.194;2023-04-28T01:57:03;101649.69;;;21.88;57.71
49397;BME280;35615;41.410;2.194;2023-04-28T02:02:36;101640.00;;;21.84;57.24
49397;BME280;35615;41.410;2.194;2023-04-28T02:05:04;101642.59;;;21.74;57.77
49397;BME280;35615;41.410;2.194;2023-04-28T02:07:31;101651.31;;;21.67;57.71
49397;BME280;35615;41.410;2.194;2023-04-28T02:09:59;101652.19;;;21.66;57.78
49397;BME280;35615;41.410;2.194;2023-04-28T02:12:27;101651.38;;;21.75;57.31
49397;BME280;35615;41.410;2.194;2023-04-28T02:14:55;101653.06;;;21.65;57.78
49397;BME280;35615;41.410;2.194;2023-04-28T02:17:30;101653.88;;;21.58;57.53
49397;BME280;35615;41.410;2.194;2023-04-28T02:19:57;101659.22;;;21.67;57.56
49397;BME280;35615;41.410;2.194;2023-04-28T02:22:25;101653.88;;;21.57;57.86
49397;BME280;35615;41.410;2.194;2023-04-28T02:24:52;101649.47;;;21.56;57.54
49397;BME280;35615;41.410;2.194;2023-04-28T02:27:20;101650.19;;;21.38;58.34
49397;BME280;35615;41.410;2.194;2023-04-28T02:29:48;101654.66;;;21.46;57.61
49397;BME280;35615;41.410;2.194;2023-04-28T02:32:18;101656.41;;;21.46;57.46
49397;BME280;35615;41.410;2.194;2023-04-28T02:34:54;101655.47;;;21.38;58.08
49397;BME280;35615;41.410;2.194;2023-04-28T02:37:22;101661.69;;;21.48;57.38
49397;BME280;35615;41.410;2.194;2023-04-28T02:39:53;101666.03;;;21.41;57.58
49397;BME280;35615;41.410;2.194;2023-04-28T02:42:21;101664.34;;;21.51;57.40
49397;BME280;35615;41.410;2.194;2023-04-28T02:44:48;101666.06;;;21.47;57.56
49397;BME280;35615;41.410;2.194;2023-04-28T02:47:19;101666.84;;;21.38;57.91
49397;BME280;35615;41.410;2.194;2023-04-28T02:49:47;101659.03;;;21.46;57.47
49397;BME280;35615;41.410;2.194;2023-04-28T02:52:14;101659.06;;;21.49;57.18
49397;BME280;35615;41.410;2.194;2023-04-28T02:54:42;101659.91;;;21.43;57.24
49397;BME280;35615;41.410;2.194;2023-04-28T02:57:11;101652.03;;;21.45;57.50
49397;BME280;35615;41.410;2.194;2023-04-28T02:59:38;101661.63;;;21.40;57.49
49397;BME280;35615;41.410;2.194;2023-04-28T03:02:08;101658.16;;;21.44;57.33
49397;BME280;35615;41.410;2.194;2023-04-28T03:04:39;101646.78;;;21.45;57.21
49397;BME280;35615;41.410;2.194;2023-04-28T03:07:07;101655.53;;;21.47;56.96
49397;BME280;35615;41.410;2.194;2023-04-28T03:09:38;101645.81;;;21.37;57.33
49397;BME280;35615;41.410;2.194;2023-04-28T03:12:09;101645.03;;;21.45;57.05
49397;BME280;35615;41.410;2.194;2023-04-28T03:14:36;101643.25;;;21.41;57.05
49397;BME280;35615;41.410;2.194;2023-04-28T03:17:06;101640.59;;;21.40;57.22
49397;BME280;35615;41.410;2.194;2023-04-28T03:19:33;101638.78;;;21.34;57.32
49397;BME280;35615;41.410;2.194;2023-04-28T03:22:01;101638.88;;;21.42;56.94
49397;BME280;35615;41.410;2.194;2023-04-28T03:24:30;101635.38;;;21.46;57.01
49397;BME280;35615;41.410;2.194;2023-04-28T03:26:58;101635.38;;;21.46;57.12
49397;BME280;35615;41.410;2.194;2023-04-28T03:29:25;101630.03;;;21.35;56.80
49397;BME280;35615;41.410;2.194;2023-04-28T03:31:52;101639.75;;;21.41;56.94
49397;BME280;35615;41.410;2.194;2023-04-28T03:34:20;101630.97;;;21.40;56.71
49397;BME280;35615;41.410;2.194;2023-04-28T03:36:53;101631.78;;;21.36;57.11
49397;BME280;35615;41.410;2.194;2023-04-28T03:39:26;101619.50;;;21.31;57.38
49397;BME280;35615;41.410;2.194;2023-04-28T03:41:54;101623.88;;;21.30;56.95
49397;BME280;35615;41.410;2.194;2023-04-28T03:44:44;101629.16;;;21.32;56.86
49397;BME280;35615;41.410;2.194;2023-04-28T03:47:14;101624.75;;;21.29;57.16
49397;BME280;35615;41.410;2.194;2023-04-28T03:49:42;101624.66;;;21.25;57.41
49397;BME280;35615;41.410;2.194;2023-04-28T03:52:10;101624.66;;;21.22;57.37
49397;BME280;35615;41.410;2.194;2023-04-28T03:54:38;101625.66;;;21.36;56.81
49397;BME280;35615;41.410;2.194;2023-04-28T03:57:06;101621.28;;;21.36;56.98
49397;BME280;35615;41.410;2.194;2023-04-28T03:59:34;101612.50;;;21.34;57.04
49397;BME280;35615;41.410;2.194;2023-04-28T04:02:01;101614.25;;;21.32;56.83
49397;BME280;35615;41.410;2.194;2023-04-28T04:04:30;101616.88;;;21.29;57.14
49397;BME280;35615;41.410;2.194;2023-04-28T04:06:58;101616.00;;;21.29;57.36
49397;BME280;35615;41.410;2.194;2023-04-28T04:09:26;101615.06;;;21.27;57.23
49397;BME280;35615;41.410;2.194;2023-04-28T04:11:56;101622.88;;;21.21;57.35
49397;BME280;35615;41.410;2.194;2023-04-28T04:14:23;101622.91;;;21.25;57.29
49397;BME280;35615;41.410;2.194;2023-04-28T04:16:52;101624.63;;;21.20;57.39
49397;BME280;35615;41.410;2.194;2023-04-28T04:19:23;101628.22;;;21.28;56.81
49397;BME280;35615;41.410;2.194;2023-04-28T04:21:53;101635.19;;;21.25;57.09
49397;BME280;35615;41.410;2.194;2023-04-28T04:24:21;101630.78;;;21.24;56.84
49397;BME280;35615;41.410;2.194;2023-04-28T04:26:51;101629.91;;;21.20;57.35
49397;BME280;35615;41.410;2.194;2023-04-28T04:29:30;101637.78;;;21.23;57.12
49397;BME280;35615;41.410;2.194;2023-04-28T04:32:01;101625.59;;;21.28;56.94
49397;BME280;35615;41.410;2.194;2023-04-28T04:34:28;101626.41;;;21.24;56.94
49397;BME280;35615;41.410;2.194;2023-04-28T04:37:01;101625.47;;;21.16;57.07
49397;BME280;35615;41.410;2.194;2023-04-28T04:39:28;101621.13;;;21.21;56.98
49397;BME280;35615;41.410;2.194;2023-04-28T04:41:56;101628.13;;;21.17;56.94
49397;BME280;35615;41.410;2.194;2023-04-28T04:44:45;101629.00;;;21.20;56.92
49397;BME280;35615;41.410;2.194;2023-04-28T04:47:25;101628.16;;;21.21;56.63
49397;BME280;35615;41.410;2.194;2023-04-28T04:49:53;101629.91;;;21.25;56.36
49397;BME280;35615;41.410;2.194;2023-04-28T04:52:21;101628.06;;;21.14;56.64
49397;BME280;35615;41.410;2.194;2023-04-28T04:54:50;101630.59;;;21.04;56.77
49397;BME280;35615;41.410;2.194;2023-04-28T04:57:17;101630.66;;;21.07;56.40
49397;BME280;35615;41.410;2.194;2023-04-28T05:03:22;101637.69;;;21.09;56.31
49397;BME280;35615;41.410;2.194;2023-04-28T05:05:52;101639.31;;;20.97;56.34
49397;BME280;35615;41.410;2.194;2023-04-28T05:08:41;101641.16;;;21.07;55.93
49397;BME280;35615;41.410;2.194;2023-04-28T05:11:09;101634.13;;;21.06;55.74
49397;BME280;35615;41.410;2.194;2023-04-28T05:13:37;101638.56;;;21.08;55.60
49397;BME280;35615;41.410;2.194;2023-04-28T05:16:17;101645.53;;;21.06;56.01
49397;BME280;35615;41.410;2.194;2023-04-28T05:19:04;101650.75;;;21.05;55.73
49397;BME280;35615;41.410;2.194;2023-04-28T05:21:32;101642.94;;;21.09;55.58
49397;BME280;35615;41.410;2.194;2023-04-28T05:24:25;101641.97;;;21.01;55.82
49397;BME280;35615;41.410;2.194;2023-04-28T05:27:14;101648.09;;;20.99;55.58
49397;BME280;35615;41.410;2.194;2023-04-28T05:29:47;101644.69;;;21.12;55.53
49397;BME280;35615;41.410;2.194;2023-04-28T05:32:24;101654.31;;;21.08;55.45
49397;BME280;35615;41.410;2.194;2023-04-28T05:34:58;101653.44;;;21.08;55.41
49397;BME280;35615;41.410;2.194;2023-04-28T05:37:33;101657.72;;;20.97;55.33
49397;BME280;35615;41.410;2.194;2023-04-28T05:40:23;101658.69;;;21.08;55.30
49397;BME280;35615;41.410;2.194;2023-04-28T05:43:02;101658.59;;;21.00;54.46
49397;BME280;35615;41.410;2.194;2023-04-28T05:45:51;101658.59;;;21.00;54.89
49397;BME280;35615;41.410;2.194;2023-04-28T05:48:25;101663.94;;;21.06;54.54
49397;BME280;35615;41.410;2.194;2023-04-28T05:51:06;101661.31;;;21.06;54.02
49397;BME280;35615;41.410;2.194;2023-04-28T05:53:38;101664.75;;;21.02;53.86
49397;BME280;35615;41.410;2.194;2023-04-28T05:56:15;101673.28;;;20.81;54.78
49397;BME280;35615;41.410;2.194;2023-04-28T06:02:08;101673.47;;;20.95;54.29
49397;BME280;35615;41.410;2.194;2023-04-28T06:04:44;101675.16;;;20.95;54.37
49397;BME280;35615;41.410;2.194;2023-04-28T06:07:32;101676.19;;;21.07;53.75
49397;BME280;35615;41.410;2.194;2023-04-28T06:10:02;101670.00;;;21.04;53.63
49397;BME280;35615;41.410;2.194;2023-04-28T06:12:43;101671.84;;;21.11;52.94
49397;BME280;35615;41.410;2.194;2023-04-28T06:15:27;101676.25;;;21.16;53.22
49397;BME280;35615;41.410;2.194;2023-04-28T06:18:06;101676.13;;;21.01;52.84
49397;BME280;35615;41.410;2.194;2023-04-28T06:20:50;101674.47;;;21.09;52.82
49397;BME280;35615;41.410;2.194;2023-04-28T06:23:21;101674.44;;;21.06;52.54
49397;BME280;35615;41.410;2.194;2023-04-28T06:25:50;101677.09;;;21.11;52.65
49397;BME280;35615;41.410;2.194;2023-04-28T06:28:19;101683.31;;;21.17;52.87
49397;BME280;35615;41.410;2.194;2023-04-28T06:31:00;101678.22;;;21.34;52.67
49397;BME280;35615;41.410;2.194;2023-04-28T06:33:37;101680.00;;;21.38;52.78
49397;BME280;35615;41.410;2.194;2023-04-28T06:36:13;101680.91;;;21.40;52.41
49397;BME280;35615;41.410;2.194;2023-04-28T06:38:54;101677.44;;;21.48;51.84
49397;BME280;35615;41.410;2.194;2023-04-28T06:41:41;101676.66;;;21.55;51.73
49397;BME280;35615;41.410;2.194;2023-04-28T06:44:17;101675.88;;;21.68;51.78
49397;BME280;35615;41.410;2.194;2023-04-28T06:47:07;101681.09;;;21.63;51.44
49397;BME280;35615;41.410;2.194;2023-04-28T06:49:37;101673.22;;;21.65;51.70
49397;BME280;35615;41.410;2.194;2023-04-28T06:52:11;101672.41;;;21.75;51.02
49397;BME280;35615;41.410;2.194;2023-04-28T06:54:46;101673.38;;;21.85;51.46
49397;BME280;35615;41.410;2.194;2023-04-28T06:57:19;101682.16;;;21.93;51.23
49397;BME280;35615;41.410;2.194;2023-04-28T06:59:58;101680.47;;;22.01;51.22
49397;BME280;35615;41.410;2.194;2023-04-28T07:02:47;101683.09;;;22.04;51.25
49397;BME280;35615;41.410;2.194;2023-04-28T07:05:20;101682.31;;;22.11;51.28
49397;BME280;35615;41.410;2.194;2023-04-28T07:07:50;101687.56;;;22.08;51.14
49397;BME280;35615;41.410;2.194;2023-04-28T07:10:22;101682.38;;;22.19;50.83
49397;BME280;35615;41.410;2.194;2023-04-28T07:13:05;101692.06;;;22.30;50.63
49397;BME280;35615;41.410;2.194;2023-04-28T07:15:35;101691.22;;;22.35;51.01
49397;BME280;35615;41.410;2.194;2023-04-28T07:18:05;101694.75;;;22.43;50.58
49397;BME280;35615;41.410;2.194;2023-04-28T07:20:49;101703.50;;;22.37;50.39
49397;BME280;35615;41.410;2.194;2023-04-28T07:23:26;101706.22;;;22.54;50.29
49397;BME280;35615;41.410;2.194;2023-04-28T07:25:57;101701.84;;;22.60;50.36
49397;BME280;35615;41.410;2.194;2023-04-28T07:28:38;101706.31;;;22.75;50.33
49397;BME280;35615;41.410;2.194;2023-04-28T07:31:13;101705.34;;;22.59;50.21
49397;BME280;35615;41.410;2.194;2023-04-28T07:33:43;101711.56;;;22.81;50.20
49397;BME280;35615;41.410;2.194;2023-04-28T07:36:11;101702.00;;;23.00;50.08
49397;BME280;35615;41.410;2.194;2023-04-28T07:38:49;101702.03;;;23.08;49.66
49397;BME280;35615;41.410;2.194;2023-04-28T07:41:19;101714.34;;;23.21;49.51
49397;BME280;35615;41.410;2.194;2023-04-28T07:44:08;101718.78;;;23.40;49.48
49397;BME280;35615;41.410;2.194;2023-04-28T07:46:38;101715.25;;;23.54;49.48
49397;BME280;35615;41.410;2.194;2023-04-28T07:49:09;101709.13;;;23.67;48.65
49397;BME280;35615;41.410;2.194;2023-04-28T07:51:55;101714.41;;;23.64;47.83
49397;BME280;35615;41.410;2.194;2023-04-28T07:54:31;101715.28;;;23.66;48.02
49397;BME280;35615;41.410;2.194;2023-04-28T07:57:02;101717.91;;;23.89;48.27
49397;BME280;35615;41.410;2.194;2023-04-28T07:59:44;101724.03;;;23.94;47.43
49397;BME280;35615;41.410;2.194;2023-04-28T08:02:12;101721.41;;;24.08;47.87
49397;BME280;35615;41.410;2.194;2023-04-28T08:04:44;101728.38;;;24.24;47.51
49397;BME280;35615;41.410;2.194;2023-04-28T08:07:14;101726.63;;;24.23;46.90
49397;BME280;35615;41.410;2.194;2023-04-28T08:09:41;101731.03;;;24.41;46.89
49397;BME280;35615;41.410;2.194;2023-04-28T08:12:13;101723.94;;;24.47;46.60
49397;BME280;35615;41.410;2.194;2023-04-28T08:14:51;101731.75;;;24.76;47.01
49397;BME280;35615;41.410;2.194;2023-04-28T08:17:26;101728.28;;;24.65;47.24
49397;BME280;35615;41.410;2.194;2023-04-28T08:20:04;101714.06;;;24.87;46.70
49397;BME280;35615;41.410;2.194;2023-04-28T08:22:54;101722.09;;;24.68;47.14
49397;BME280;35615;41.410;2.194;2023-04-28T08:25:36;101726.44;;;24.84;47.29
49397;BME280;35615;41.410;2.194;2023-04-28T08:28:12;101742.22;;;24.98;46.85
49397;BME280;35615;41.410;2.194;2023-04-28T08:30:46;101736.94;;;25.05;47.22
49397;BME280;35615;41.410;2.194;2023-04-28T08:33:25;101732.47;;;25.10;46.71
49397;BME280;35615;41.410;2.194;2023-04-28T08:36:01;101744.69;;;25.30;46.61
49397;BME280;35615;41.410;2.194;2023-04-28T08:38:36;101735.78;;;25.38;46.54
49397;BME280;35615;41.410;2.194;2023-04-28T08:41:29;101743.09;;;25.01;47.43
49397;BME280;35615;41.410;2.194;2023-04-28T08:44:18;101734.19;;;25.16;47.43
49397;BME280;35615;41.410;2.194;2023-04-28T08:47:12;101734.13;;;25.25;47.35
49397;BME280;35615;41.410;2.194;2023-04-28T08:49:49;101730.69;;;25.12;48.13
49397;BME280;35615;41.410;2.194;2023-04-28T08:52:32;101733.88;;;25.59;47.06
49397;BME280;35615;41.410;2.194;2023-04-28T08:55:17;101729.66;;;25.36;47.64
49397;BME280;35615;41.410;2.194;2023-04-28T08:57:56;101719.94;;;25.40;47.54
49397;BME280;35615;41.410;2.194;2023-04-28T09:00:37;101733.34;;;25.12;48.14
49397;BME280;35615;41.410;2.194;2023-04-28T09:03:23;101731.75;;;24.72;49.02
49397;BME280;35615;41.410;2.194;2023-04-28T09:05:58;101718.59;;;24.64;49.18
49397;BME280;35615;41.410;2.194;2023-04-28T09:08:39;101712.44;;;24.59;49.77
49397;BME280;35615;41.410;2.194;2023-04-28T09:11:18;101729.22;;;24.53;49.93
49397;BME280;35615;41.410;2.194;2023-04-28T09:14:22;101732.53;;;24.92;48.46
49397;BME280;35615;41.410;2.194;2023-04-28T09:17:13;101733.09;;;25.47;47.73
49397;BME280;35615;41.410;2.194;2023-04-28T09:20:03;101738.44;;;25.41;47.68
49397;BME280;35615;41.410;2.194;2023-04-28T09:23:14;101736.47;;;25.69;47.51
49397;BME280;35615;41.410;2.194;2023-04-28T09:26:01;101741.03;;;25.47;47.89
49397;BME280;35615;41.410;2.194;2023-04-28T09:28:37;101742.84;;;25.41;47.91
49397;BME280;35615;41.410;2.194;2023-04-28T09:31:42;101716.22;;;25.62;47.72
49397;BME280;35615;41.410;2.194;2023-04-28T09:34:45;101701.13;;;25.75;47.31
49397;BME280;35615;41.410;2.194;2023-04-28T09:37:57;101706.22;;;25.96;46.89
49397;BME280;35615;41.410;2.194;2023-04-28T09:41:05;101702.78;;;25.88;46.68
49397;BME280;35615;41.410;2.194;2023-04-28T09:43:40;101708.69;;;26.12;46.74
49397;BME280;35615;41.410;2.194;2023-04-28T09:46:37;101710.41;;;26.17;46.12
49397;BME280;35615;41.410;2.194;2023-04-28T09:49:21;101709.72;;;26.00;47.05
49397;BME280;35615;41.410;2.194;2023-04-28T09:51:51;101713.69;;;26.42;45.77
49397;BME280;35615;41.410;2.194;2023-04-28T09:54:23;101715.44;;;26.43;45.68
49397;BME280;35615;41.410;2.194;2023-04-28T09:57:16;101719.28;;;26.87;44.50
49397;BME280;35615;41.410;2.194;2023-04-28T10:00:08;101717.72;;;26.71;44.62
49397;BME280;35615;41.410;2.194;2023-04-28T10:02:40;101719.69;;;27.23;44.10
49397;BME280;35615;41.410;2.194;2023-04-28T10:05:17;101717.72;;;27.34;43.32
49397;BME280;35615;41.410;2.194;2023-04-28T10:10:31;101719.53;;;27.32;42.57
49397;BME280;35615;41.410;2.194;2023-04-28T10:13:20;101713.41;;;27.27;42.41
49397;BME280;35615;41.410;2.194;2023-04-28T10:15:50;101709.44;;;27.54;41.84
49397;BME280;35615;41.410;2.194;2023-04-28T10:18:24;101724.44;;;27.56;41.43
49397;BME280;35615;41.410;2.194;2023-04-28T10:21:04;101721.25;;;27.34;41.46
49397;BME280;35615;41.410;2.194;2023-04-28T10:29:32;101723.00;;;26.74;41.01
49397;BME280;35615;41.410;2.194;2023-04-28T10:32:22;101725.34;;;26.97;41.11
49397;BME280;35615;41.410;2.194;2023-04-28T10:38:13;101724.78;;;27.35;40.84
49397;BME280;35615;41.410;2.194;2023-04-28T10:40:49;101726.63;;;27.31;40.37
49397;BME280;35615;41.410;2.194;2023-04-28T10:46:05;101726.88;;;27.70;41.22
49397;BME280;35615;41.410;2.194;2023-04-28T10:48:56;101717.31;;;27.03;42.62
49397;BME280;35615;41.410;2.194;2023-04-28T10:51:36;101722.72;;;27.54;42.03
49397;BME280;35615;41.410;2.194;2023-04-28T10:54:18;101721.63;;;27.67;41.81
49397;BME280;35615;41.410;2.194;2023-04-28T10:57:15;101712.38;;;27.37;42.30
49397;BME280;35615;41.410;2.194;2023-04-28T11:02:57;101706.91;;;27.98;41.71
49397;BME280;35615;41.410;2.194;2023-04-28T11:05:30;101710.19;;;27.60;41.85
49397;BME280;35615;41.410;2.194;2023-04-28T11:17:02;101708.31;;;27.71;40.45
49397;BME280;35615;41.410;2.194;2023-04-28T11:19:38;101708.78;;;27.92;39.82
49397;BME280;35615;41.410;2.194;2023-04-28T11:22:20;101701.88;;;27.83;38.62
49397;BME280;35615;41.410;2.194;2023-04-28T11:27:47;101702.09;;;28.19;40.57
49397;BME280;35615;41.410;2.194;2023-04-28T11:30:22;101706.09;;;27.95;39.50
49397;BME280;35615;41.410;2.194;2023-04-28T11:33:10;101688.50;;;27.88;41.37
49397;BME280;35615;41.410;2.194;2023-04-28T11:35:55;101686.53;;;27.99;41.84
49397;BME280;35615;41.410;2.194;2023-04-28T11:38:26;101688.94;;;27.63;42.58
49397;BME280;35615;41.410;2.194;2023-04-28T11:41:14;101676.19;;;28.31;41.94
49397;BME280;35615;41.410;2.194;2023-04-28T11:43:52;101669.88;;;28.35;41.71
49397;BME280;35615;41.410;2.194;2023-04-28T11:46:51;101680.00;;;28.17;41.82
49397;BME280;35615;41.410;2.194;2023-04-28T11:50:08;101670.59;;;28.44;41.97
49397;BME280;35615;41.410;2.194;2023-04-28T11:52:51;101667.09;;;28.42;41.39
49397;BME280;35615;41.410;2.194;2023-04-28T11:55:19;101659.50;;;28.65;41.23
49397;BME280;35615;41.410;2.194;2023-04-28T12:01:12;101655.44;;;28.89;40.04
49397;BME280;35615;41.410;2.194;2023-04-28T12:03:47;101649.38;;;28.82;40.19
49397;BME280;35615;41.410;2.194;2023-04-28T12:06:25;101650.91;;;28.92;41.14
49397;BME280;35615;41.410;2.194;2023-04-28T12:08:54;101661.03;;;28.75;40.76
49397;BME280;35615;41.410;2.194;2023-04-28T12:11:32;101647.06;;;29.06;40.93
49397;BME280;35615;41.410;2.194;2023-04-28T12:14:15;101658.41;;;28.74;40.88
49397;BME280;35615;41.410;2.194;2023-04-28T12:16:50;101653.63;;;28.89;40.49
49397;BME280;35615;41.410;2.194;2023-04-28T12:19:28;101642.97;;;28.91;41.12
49397;BME280;35615;41.410;2.194;2023-04-28T12:22:08;101637.97;;;28.76;40.88
49397;BME280;35615;41.410;2.194;2023-04-28T12:24:44;101647.31;;;28.95;39.82
49397;BME280;35615;41.410;2.194;2023-04-28T12:27:22;101640.66;;;29.13;40.14
49397;BME280;35615;41.410;2.194;2023-04-28T12:30:04;101647.41;;;29.26;40.37
49397;BME280;35615;41.410;2.194;2023-04-28T12:33:06;101644.47;;;29.38;40.63
49397;BME280;35615;41.410;2.194;2023-04-28T12:35:50;101640.31;;;29.95;38.99
49397;BME280;35615;41.410;2.194;2023-04-28T12:38:31;101637.47;;;29.68;38.44
49397;BME280;35615;41.410;2.194;2023-04-28T12:41:00;101638.41;;;29.32;38.84
49397;BME280;35615;41.410;2.194;2023-04-28T12:43:39;101639.22;;;29.69;37.78
49397;BME280;35615;41.410;2.194;2023-04-28T12:46:13;101640.28;;;29.28;38.19
49397;BME280;35615;41.410;2.194;2023-04-28T12:48:59;101652.59;;;29.32;37.86
49397;BME280;35615;41.410;2.194;2023-04-28T12:54:24;101643.91;;;29.24;39.54
49397;BME280;35615;41.410;2.194;2023-04-28T12:56:57;101639.50;;;28.86;40.67
49397;BME280;35615;41.410;2.194;2023-04-28T12:59:38;101644.00;;;28.44;41.70
49397;BME280;35615;41.410;2.194;2023-04-28T13:02:15;101634.19;;;28.86;41.09
49397;BME280;35615;41.410;2.194;2023-04-28T13:05:15;101625.47;;;28.41;42.13
49397;BME280;35615;41.410;2.194;2023-04-28T13:07:53;101643.28;;;28.76;41.34
49397;BME280;35615;41.410;2.194;2023-04-28T13:10:39;101634.25;;;28.44;42.31
49397;BME280;35615;41.410;2.194;2023-04-28T13:13:16;101645.44;;;28.17;42.85
49397;BME280;35615;41.410;2.194;2023-04-28T13:15:52;101635.28;;;28.39;42.12
49397;BME280;35615;41.410;2.194;2023-04-28T13:18:30;101632.03;;;27.78;42.88
49397;BME280;35615;41.410;2.194;2023-04-28T13:21:04;101629.00;;;27.48;43.22
49397;BME280;35615;41.410;2.194;2023-04-28T13:23:40;101629.56;;;27.69;42.66
49397;BME280;35615;41.410;2.194;2023-04-28T13:26:40;101636.38;;;28.25;41.57
49397;BME280;35615;41.410;2.194;2023-04-28T13:30:00;101627.19;;;28.43;40.55
49397;BME280;35615;41.410;2.194;2023-04-28T13:32:30;101625.25;;;27.62;41.78
49397;BME280;35615;41.410;2.194;2023-04-28T13:35:00;101612.81;;;28.10;42.23
49397;BME280;35615;41.410;2.194;2023-04-28T13:37:30;101611.81;;;27.71;41.68
49397;BME280;35615;41.410;2.194;2023-04-28T13:39:57;101600.97;;;28.28;41.62
49397;BME280;35615;41.410;2.194;2023-04-28T13:42:33;101601.34;;;28.08;42.54
49397;BME280;35615;41.410;2.194;2023-04-28T13:45:06;101609.72;;;28.31;40.33
49397;BME280;35615;41.410;2.194;2023-04-28T13:47:59;101601.19;;;27.71;42.80
49397;BME280;35615;41.410;2.194;2023-04-28T13:50:50;101588.81;;;27.71;43.37
49397;BME280;35615;41.410;2.194;2023-04-28T13:53:27;101587.44;;;27.47;43.95
49397;BME280;35615;41.410;2.194;2023-04-28T13:56:04;101593.00;;;26.80;44.02
49397;BME280;35615;41.410;2.194;2023-04-28T13:58:53;101584.81;;;27.46;43.75
49397;BME280;35615;41.410;2.194;2023-04-28T14:01:32;101580.63;;;26.80;42.02
49397;BME280;35615;41.410;2.194;2023-04-28T14:04:10;101576.63;;;27.10;45.10
49397;BME280;35615;41.410;2.194;2023-04-28T14:06:51;101574.56;;;26.71;45.11
49397;BME280;35615;41.410;2.194;2023-04-28T14:09:24;101582.63;;;26.66;46.49
49397;BME280;35615;41.410;2.194;2023-04-28T14:11:59;101569.22;;;26.75;45.43
49397;BME280;35615;41.410;2.194;2023-04-28T14:17:35;101559.53;;;26.74;46.57
49397;BME280;35615;41.410;2.194;2023-04-28T14:20:09;101555.16;;;26.70;46.71
49397;BME280;35615;41.410;2.194;2023-04-28T14:22:49;101547.22;;;26.69;46.74